createdAt,value
2023-02-22T00:00:48.874Z,8.40
2023-02-22T00:03:16.883Z,8.40
2023-02-22T00:05:53.638Z,8.40
2023-02-22T00:08:23.773Z,8.40
2023-02-22T00:10:53.371Z,8.40
2023-02-22T00:13:22.807Z,8.40
2023-02-22T00:15:49.795Z,8.40
2023-02-22T00:18:19.642Z,8.40
2023-02-22T00:20:46.482Z,8.40
2023-02-22T00:23:22.208Z,8.40
2023-02-22T00:25:50.627Z,8.40
2023-02-22T00:28:20.990Z,8.40
2023-02-22T00:30:48.300Z,8.40
2023-02-22T00:33:16.224Z,8.40
2023-02-22T00:35:46.025Z,8.30
2023-02-22T00:38:15.430Z,8.30
2023-02-22T00:40:42.280Z,8.30
2023-02-22T00:43:09.157Z,8.40
2023-02-22T00:45:37.443Z,8.30
2023-02-22T00:48:05.605Z,8.30
2023-02-22T00:50:33.444Z,8.30
2023-02-22T00:53:02.271Z,8.30
2023-02-22T00:55:31.736Z,8.30
2023-02-22T00:57:59.595Z,8.30
2023-02-22T01:00:29.670Z,8.30
2023-02-22T01:02:56.942Z,8.30
2023-02-22T01:05:27.526Z,8.30
2023-02-22T01:07:55.917Z,8.30
2023-02-22T01:10:24.956Z,8.30
2023-02-22T01:12:52.422Z,8.30
2023-02-22T01:15:24.191Z,8.30
2023-02-22T01:17:53.657Z,8.30
2023-02-22T01:20:22.831Z,8.30
2023-02-22T01:22:51.655Z,8.30
2023-02-22T01:25:21.496Z,8.20
2023-02-22T01:27:50.262Z,8.20
2023-02-22T01:30:21.830Z,8.30
2023-02-22T01:32:48.866Z,8.20
2023-02-22T01:35:19.197Z,8.30
2023-02-22T01:37:46.037Z,8.20
2023-02-22T01:40:25.797Z,8.30
2023-02-22T01:42:57.372Z,8.30
2023-02-22T01:45:39.147Z,8.20
2023-02-22T01:48:09.018Z,8.20
2023-02-22T01:50:52.818Z,8.20
2023-02-22T01:53:23.653Z,8.30
2023-02-22T01:55:51.873Z,8.20
2023-02-22T01:58:20.895Z,8.20
2023-02-22T02:00:47.894Z,8.20
2023-02-22T02:03:22.291Z,8.20
2023-02-22T02:05:51.663Z,8.20
2023-02-22T02:08:37.743Z,8.20
2023-02-22T02:11:09.174Z,8.20
2023-02-22T02:13:36.959Z,8.20
2023-02-22T02:16:04.218Z,8.20
2023-02-22T02:18:32.636Z,8.20
2023-02-22T02:21:18.336Z,8.20
2023-02-22T02:24:03.246Z,8.20
2023-02-22T02:26:49.874Z,8.20
2023-02-22T02:29:16.612Z,8.20
2023-02-22T02:32:02.427Z,8.20
2023-02-22T02:34:38.172Z,8.20
2023-02-22T02:37:54.174Z,8.20
2023-02-22T02:40:23.801Z,8.20
2023-02-22T02:42:53.811Z,8.20
2023-02-22T02:45:35.061Z,8.20
2023-02-22T02:48:05.160Z,8.20
2023-02-22T02:50:37.634Z,8.20
2023-02-22T02:53:08.047Z,8.20
2023-02-22T02:55:36.875Z,8.20
2023-02-22T02:58:06.043Z,8.20
2023-02-22T03:00:39.516Z,8.20
2023-02-22T03:03:26.608Z,8.20
2023-02-22T03:06:10.254Z,8.20
2023-02-22T03:08:58.636Z,8.20
2023-02-22T03:11:32.260Z,8.20
2023-02-22T03:14:17.898Z,8.20
2023-02-22T03:16:46.776Z,8.20
2023-02-22T03:19:22.813Z,8.20
2023-02-22T03:22:02.960Z,8.20
2023-02-22T03:24:53.212Z,8.20
2023-02-22T03:27:28.153Z,8.20
2023-02-22T03:30:00.383Z,8.10
2023-02-22T03:32:33.471Z,8.20
2023-02-22T03:35:19.373Z,8.20
2023-02-22T03:37:50.239Z,8.10
2023-02-22T03:40:28.114Z,8.10
2023-02-22T03:43:14.538Z,8.10
2023-02-22T03:45:44.828Z,8.10
2023-02-22T03:48:31.837Z,8.10
2023-02-22T03:50:58.942Z,8.10
2023-02-22T03:53:25.954Z,8.10
2023-02-22T03:55:55.625Z,8.10
2023-02-22T03:58:24.349Z,8.10
2023-02-22T04:00:53.244Z,8.00
2023-02-22T04:03:21.082Z,8.00
2023-02-22T04:05:48.724Z,8.00
2023-02-22T04:08:16.151Z,7.90
2023-02-22T04:10:43.220Z,7.90
2023-02-22T04:13:10.710Z,7.90
2023-02-22T04:15:37.900Z,7.90
2023-02-22T04:18:05.738Z,7.90
2023-02-22T04:20:34.847Z,7.90
2023-02-22T04:23:01.800Z,7.90
2023-02-22T04:25:28.862Z,7.90
2023-02-22T04:27:55.834Z,7.90
2023-02-22T04:30:23.434Z,7.90
2023-02-22T04:32:50.358Z,7.90
2023-02-22T04:35:17.326Z,7.90
2023-02-22T04:37:44.228Z,8.00
2023-02-22T04:40:11.570Z,8.00
2023-02-22T04:42:39.260Z,8.00
2023-02-22T04:45:08.593Z,8.00
2023-02-22T04:47:38.523Z,7.90
2023-02-22T04:50:07.559Z,7.90
2023-02-22T04:52:34.462Z,7.90
2023-02-22T04:55:01.353Z,7.90
2023-02-22T04:57:28.342Z,7.90
2023-02-22T04:59:55.452Z,7.90
2023-02-22T05:02:22.634Z,7.90
2023-02-22T05:04:49.687Z,7.90
2023-02-22T05:07:17.689Z,7.90
2023-02-22T05:09:44.573Z,7.90
2023-02-22T05:12:11.465Z,7.80
2023-02-22T05:14:38.461Z,7.80
2023-02-22T05:17:05.425Z,7.80
2023-02-22T05:19:32.454Z,7.70
2023-02-22T05:21:59.333Z,7.80
2023-02-22T05:24:26.164Z,7.70
2023-02-22T05:26:53.292Z,7.70
2023-02-22T05:29:21.039Z,7.70
2023-02-22T05:31:47.949Z,7.70
2023-02-22T05:34:15.902Z,7.70
2023-02-22T05:36:42.913Z,7.70
2023-02-22T05:39:09.797Z,7.70
2023-02-22T05:41:36.706Z,7.70
2023-02-22T05:44:04.057Z,7.60
2023-02-22T05:46:30.934Z,7.70
2023-02-22T05:48:57.871Z,7.70
2023-02-22T05:51:24.749Z,7.70
2023-02-22T05:53:52.634Z,7.60
2023-02-22T05:56:24.369Z,7.60
2023-02-22T05:58:51.347Z,7.60
2023-02-22T06:01:18.751Z,7.60
2023-02-22T06:03:50.250Z,7.60
2023-02-22T06:06:19.216Z,7.60
2023-02-22T06:08:47.089Z,7.60
2023-02-22T06:11:14.285Z,7.60
2023-02-22T06:13:41.362Z,7.60
2023-02-22T06:16:08.403Z,7.60
2023-02-22T06:18:35.353Z,7.60
2023-02-22T06:21:02.265Z,7.60
2023-02-22T06:23:29.110Z,7.50
2023-02-22T06:25:55.946Z,7.50
2023-02-22T06:28:23.906Z,7.50
2023-02-22T06:30:50.797Z,7.50
2023-02-22T06:33:17.734Z,7.50
2023-02-22T06:35:45.267Z,7.50
2023-02-22T06:38:12.517Z,7.50
2023-02-22T06:40:39.361Z,7.50
2023-02-22T06:43:06.163Z,7.50
2023-02-22T06:45:33.129Z,7.50
2023-02-22T06:47:59.922Z,7.40
2023-02-22T06:50:30.406Z,7.40
2023-02-22T06:52:58.208Z,7.40
2023-02-22T06:55:30.534Z,7.40
2023-02-22T06:57:57.583Z,7.40
2023-02-22T07:00:26.435Z,7.40
2023-02-22T07:02:54.364Z,7.40
2023-02-22T07:05:22.736Z,7.40
2023-02-22T07:07:52.648Z,7.50
2023-02-22T07:10:27.460Z,7.50
2023-02-22T07:12:54.892Z,7.50
2023-02-22T07:15:24.454Z,7.50
2023-02-22T07:17:52.469Z,7.50
2023-02-22T07:20:20.848Z,7.50
2023-02-22T07:22:49.041Z,7.50
2023-02-22T07:25:16.428Z,7.50
2023-02-22T07:27:43.873Z,7.50
2023-02-22T07:30:26.295Z,7.50
2023-02-22T07:32:54.720Z,7.60
2023-02-22T07:35:27.604Z,7.60
2023-02-22T07:37:56.045Z,7.60
2023-02-22T07:40:24.938Z,7.60
2023-02-22T07:42:59.567Z,7.70
2023-02-22T07:45:34.493Z,7.70
2023-02-22T07:48:03.666Z,7.70
2023-02-22T07:50:33.067Z,7.70
2023-02-22T07:53:02.528Z,7.70
2023-02-22T07:55:30.973Z,7.80
2023-02-22T07:58:00.239Z,7.80
2023-02-22T08:00:30.227Z,7.80
2023-02-22T08:02:57.434Z,7.80
2023-02-22T08:05:26.182Z,7.80
2023-02-22T08:07:53.395Z,7.90
2023-02-22T08:10:23.299Z,7.90
2023-02-22T08:12:50.944Z,7.90
2023-02-22T08:15:24.379Z,7.90
2023-02-22T08:17:51.831Z,7.90
2023-02-22T08:20:19.473Z,7.90
2023-02-22T08:22:47.794Z,8.00
2023-02-22T08:25:17.545Z,8.00
2023-02-22T08:27:45.299Z,8.00
2023-02-22T08:30:21.240Z,7.90
2023-02-22T08:32:49.544Z,7.90
2023-02-22T08:35:21.953Z,7.90
2023-02-22T08:37:54.966Z,7.90
2023-02-22T08:40:27.907Z,7.90
2023-02-22T08:42:57.427Z,7.90
2023-02-22T08:45:24.362Z,7.90
2023-02-22T08:47:51.540Z,7.80
2023-02-22T08:50:30.169Z,7.90
2023-02-22T08:53:00.364Z,7.90
2023-02-22T08:55:31.400Z,7.90
2023-02-22T08:58:00.105Z,7.90
2023-02-22T09:00:29.514Z,7.90
2023-02-22T09:02:57.717Z,8.00
2023-02-22T09:05:24.712Z,8.00
2023-02-22T09:07:51.560Z,8.00
2023-02-22T09:10:24.848Z,8.00
2023-02-22T09:12:52.508Z,8.00
2023-02-22T09:15:19.622Z,7.90
2023-02-22T09:17:46.495Z,7.90
2023-02-22T09:20:13.902Z,7.90
2023-02-22T09:22:41.401Z,7.90
2023-02-22T09:25:16.638Z,7.90
2023-02-22T09:27:46.584Z,7.90
2023-02-22T09:30:19.964Z,7.90
2023-02-22T09:32:49.653Z,7.90
2023-02-22T09:35:16.654Z,7.90
2023-02-22T09:37:45.064Z,7.80
2023-02-22T09:40:24.975Z,7.90
2023-02-22T09:43:07.208Z,7.90
2023-02-22T09:46:19.411Z,7.90
2023-02-22T09:49:02.042Z,7.90
2023-02-22T09:51:45.535Z,7.90
2023-02-22T09:54:21.792Z,7.90
2023-02-22T09:56:51.477Z,8.00
2023-02-22T09:59:29.739Z,8.00
2023-02-22T10:02:14.338Z,8.00
2023-02-22T10:04:52.778Z,8.10
2023-02-22T10:07:34.709Z,8.10
2023-02-22T10:10:06.854Z,8.10
2023-02-22T10:13:16.269Z,8.00
2023-02-22T10:16:02.856Z,8.10
2023-02-22T10:18:57.345Z,8.10
2023-02-22T10:21:49.036Z,8.10
2023-02-22T10:24:39.738Z,8.20
2023-02-22T10:27:10.016Z,8.20
2023-02-22T10:29:42.319Z,8.20
2023-02-22T10:32:16.942Z,8.30
2023-02-22T10:34:51.503Z,8.30
2023-02-22T10:37:32.247Z,8.30
2023-02-22T10:40:23.812Z,8.30
2023-02-22T10:42:50.889Z,8.40
2023-02-22T10:45:26.809Z,8.40
2023-02-22T10:47:59.122Z,8.50
2023-02-22T10:50:31.241Z,8.60
2023-02-22T10:52:58.054Z,8.60
2023-02-22T10:55:25.253Z,8.60
2023-02-22T10:58:02.121Z,8.70
2023-02-22T11:00:37.417Z,8.70
2023-02-22T11:03:20.818Z,8.70
2023-02-22T11:05:49.462Z,8.70
2023-02-22T11:08:24.066Z,8.70
2023-02-22T11:10:53.653Z,8.70
2023-02-22T11:13:27.706Z,8.70
2023-02-22T11:15:58.374Z,8.70
2023-02-22T11:18:29.796Z,8.70
2023-02-22T11:21:08.244Z,8.70
2023-02-22T11:23:37.198Z,8.70
2023-02-22T11:26:10.950Z,8.80
2023-02-22T11:28:49.182Z,8.80
2023-02-22T11:31:20.878Z,8.80
2023-02-22T11:36:41.080Z,8.90
2023-02-22T11:39:29.664Z,9.00
2023-02-22T11:41:57.133Z,9.00
2023-02-22T11:44:29.305Z,9.00
2023-02-22T11:47:01.564Z,9.10
2023-02-22T11:49:38.338Z,9.10
2023-02-22T11:52:34.736Z,9.10
2023-02-22T11:55:05.808Z,9.10
2023-02-22T11:57:39.719Z,9.20
2023-02-22T12:00:33.463Z,9.20
2023-02-22T12:03:34.712Z,9.20
2023-02-22T12:06:10.476Z,9.30
2023-02-22T12:08:41.146Z,9.30
2023-02-22T12:11:18.399Z,9.30
2023-02-22T12:14:13.480Z,9.40
2023-02-22T12:17:04.755Z,9.40
2023-02-22T12:19:43.286Z,9.40
2023-02-22T12:22:12.328Z,9.40
2023-02-22T12:24:48.916Z,9.40
2023-02-22T12:27:28.448Z,9.40
2023-02-22T12:30:13.173Z,9.40
2023-02-22T12:32:44.473Z,9.50
2023-02-22T12:35:17.478Z,9.50
2023-02-22T12:38:24.228Z,9.50
2023-02-22T12:41:27.102Z,9.50
2023-02-22T12:44:24.860Z,9.50
2023-02-22T12:46:56.783Z,9.50
2023-02-22T12:49:29.509Z,9.50
2023-02-22T12:52:34.180Z,9.40
2023-02-22T12:55:11.655Z,9.40
2023-02-22T12:58:15.530Z,9.40
2023-02-22T13:00:48.532Z,9.40
2023-02-22T13:03:15.403Z,9.40
2023-02-22T13:05:43.290Z,9.40
2023-02-22T13:08:21.834Z,9.50
2023-02-22T13:11:37.135Z,9.60
2023-02-22T13:14:22.551Z,9.60
2023-02-22T13:17:24.023Z,9.60
2023-02-22T13:20:23.352Z,9.70
2023-02-22T13:22:59.378Z,9.70
2023-02-22T13:25:34.359Z,9.80
2023-02-22T13:28:13.341Z,9.90
2023-02-22T13:30:48.623Z,9.90
2023-02-22T13:33:36.026Z,10.00
2023-02-22T13:36:32.267Z,10.10
2023-02-22T13:39:07.713Z,10.20
2023-02-22T13:42:18.344Z,10.30
2023-02-22T13:44:57.437Z,10.50
2023-02-22T13:47:34.996Z,10.60
2023-02-22T13:50:28.383Z,10.70
2023-02-22T13:52:57.859Z,10.70
2023-02-22T13:55:31.506Z,10.80
2023-02-22T13:58:16.468Z,10.90
2023-02-22T14:00:58.468Z,11.00
2023-02-22T14:03:36.079Z,11.00
2023-02-22T14:06:05.164Z,11.10
2023-02-22T14:08:33.704Z,11.10
2023-02-22T14:11:32.458Z,11.20
2023-02-22T14:14:01.078Z,11.30
2023-02-22T14:16:29.784Z,11.30
2023-02-22T14:19:13.515Z,11.30
2023-02-22T14:22:03.993Z,11.30
2023-02-22T14:24:43.057Z,11.40
2023-02-22T14:27:11.108Z,11.30
2023-02-22T14:29:38.483Z,11.30
2023-02-22T14:32:10.655Z,11.30
2023-02-22T14:35:26.500Z,11.20
2023-02-22T14:37:59.019Z,11.20
2023-02-22T14:40:29.545Z,11.10
2023-02-22T14:43:05.014Z,11.10
2023-02-22T14:45:34.632Z,11.10
2023-02-22T14:48:24.981Z,11.10
2023-02-22T14:51:15.602Z,11.00
2023-02-22T14:53:52.939Z,11.00
2023-02-22T14:56:29.938Z,10.90
2023-02-22T14:59:16.804Z,10.80
2023-02-22T15:02:01.739Z,10.70
2023-02-22T15:04:32.969Z,10.70
2023-02-22T15:07:01.317Z,10.70
2023-02-22T15:09:33.772Z,10.70
2023-02-22T15:12:05.217Z,10.60
2023-02-22T15:14:37.993Z,10.60
2023-02-22T15:17:19.881Z,10.60
2023-02-22T15:19:50.717Z,10.60
2023-02-22T15:22:32.830Z,10.60
2023-02-22T15:25:05.762Z,10.50
2023-02-22T15:27:37.534Z,10.50
2023-02-22T15:30:17.960Z,10.40
2023-02-22T15:33:02.643Z,10.40
2023-02-22T15:35:33.421Z,10.30
2023-02-22T15:38:06.106Z,10.30
2023-02-22T15:40:33.844Z,10.30
2023-02-22T15:43:10.462Z,10.30
2023-02-22T15:45:42.891Z,10.30
2023-02-22T15:48:16.191Z,10.20
2023-02-22T15:51:12.372Z,10.20
2023-02-22T15:53:43.754Z,10.20
2023-02-22T15:56:36.844Z,10.20
2023-02-22T15:59:13.847Z,10.20
2023-02-22T16:01:43.489Z,10.20
2023-02-22T16:04:29.120Z,10.20
2023-02-22T16:07:07.155Z,10.10
2023-02-22T16:09:34.793Z,10.10
2023-02-22T16:12:28.568Z,10.00
2023-02-22T16:14:56.493Z,10.00
2023-02-22T16:17:37.221Z,10.00
2023-02-22T16:20:14.453Z,9.90
2023-02-22T16:22:49.148Z,9.90
2023-02-22T16:25:19.278Z,9.90
2023-02-22T16:27:50.162Z,9.80
2023-02-22T16:30:34.722Z,9.80
2023-02-22T16:33:05.594Z,9.70
2023-02-22T16:35:35.464Z,9.70
2023-02-22T16:38:08.086Z,9.70
2023-02-22T16:40:47.022Z,9.60
2023-02-22T16:43:26.712Z,9.60
2023-02-22T16:45:53.609Z,9.60
2023-02-22T16:48:26.441Z,9.50
2023-02-22T16:50:55.503Z,9.40
2023-02-22T16:53:24.705Z,9.40
2023-02-22T16:55:57.768Z,9.40
2023-02-22T16:58:29.378Z,9.30
2023-02-22T17:00:57.446Z,9.30
2023-02-22T17:03:25.509Z,9.30
2023-02-22T17:05:52.631Z,9.20
2023-02-22T17:08:19.698Z,9.20
2023-02-22T17:10:46.816Z,9.10
2023-02-22T17:13:23.068Z,9.10
2023-02-22T17:15:51.952Z,9.10
2023-02-22T17:18:23.478Z,9.10
2023-02-22T17:20:53.121Z,9.00
2023-02-22T17:23:21.344Z,9.00
2023-02-22T17:26:03.355Z,9.00
2023-02-22T17:28:31.508Z,9.00
2023-02-22T17:31:03.249Z,9.10
2023-02-22T17:33:33.404Z,9.00
2023-02-22T17:36:02.083Z,9.00
2023-02-22T17:38:30.387Z,9.00
2023-02-22T17:41:01.559Z,9.00
2023-02-22T17:43:29.088Z,9.00
2023-02-22T17:45:56.657Z,9.00
2023-02-22T17:48:24.425Z,9.00
2023-02-22T17:50:52.072Z,9.00
2023-02-22T17:53:22.652Z,8.90
2023-02-22T17:55:49.861Z,8.90
2023-02-22T17:58:17.474Z,8.90
2023-02-22T18:00:47.693Z,8.90
2023-02-22T18:03:21.131Z,8.80
2023-02-22T18:05:50.309Z,8.80
2023-02-22T18:08:17.264Z,8.80
2023-02-22T18:10:45.096Z,8.70
2023-02-22T18:13:18.807Z,8.70
2023-02-22T18:15:46.706Z,8.70
2023-02-22T18:18:14.878Z,8.70
2023-02-22T18:20:43.969Z,8.70
2023-02-22T18:23:17.032Z,8.60
2023-02-22T18:26:03.744Z,8.60
2023-02-22T18:28:35.797Z,8.60
2023-02-22T18:31:10.517Z,8.50
2023-02-22T18:33:37.442Z,8.60
2023-02-22T18:36:04.737Z,8.50
2023-02-22T18:38:31.791Z,8.50
2023-02-22T18:41:04.413Z,8.50
2023-02-22T18:43:32.083Z,8.50
2023-02-22T18:46:19.745Z,8.50
2023-02-22T18:48:48.159Z,8.50
2023-02-22T18:51:17.389Z,8.50
2023-02-22T18:53:47.199Z,8.50
2023-02-22T18:56:17.855Z,8.50
2023-02-22T18:58:45.115Z,8.60
2023-02-22T19:01:17.839Z,8.60
2023-02-22T19:03:47.266Z,8.60
2023-02-22T19:06:15.610Z,8.60
2023-02-22T19:08:44.180Z,8.60
2023-02-22T19:11:17.732Z,8.60
2023-02-22T19:13:49.053Z,8.60
2023-02-22T19:16:19.749Z,8.60
2023-02-22T19:18:48.657Z,8.60
2023-02-22T19:21:16.120Z,8.60
2023-02-22T19:23:46.017Z,8.60
2023-02-22T19:26:14.852Z,8.60
2023-02-22T19:28:41.722Z,8.60
2023-02-22T19:31:15.887Z,8.60
2023-02-22T19:33:43.523Z,8.60
2023-02-22T19:36:11.717Z,8.60
2023-02-22T19:38:39.120Z,8.60
2023-02-22T19:41:12.502Z,8.60
2023-02-22T19:43:39.537Z,8.60
2023-02-22T19:46:07.925Z,8.60
2023-02-22T19:48:35.360Z,8.60
2023-02-22T19:51:16.744Z,8.60
2023-02-22T19:53:44.466Z,8.60
2023-02-22T19:56:19.955Z,8.60
2023-02-22T19:58:49.703Z,8.60
2023-02-22T20:01:26.909Z,8.60
2023-02-22T20:03:59.946Z,8.60
2023-02-22T20:06:31.085Z,8.60
2023-02-22T20:08:58.426Z,8.60
2023-02-22T20:11:25.412Z,8.60
2023-02-22T20:13:52.432Z,8.60
2023-02-22T20:16:19.317Z,8.50
2023-02-22T20:18:47.698Z,8.50
2023-02-22T20:21:30.940Z,8.50
2023-02-22T20:24:03.174Z,8.50
2023-02-22T20:26:31.891Z,8.50
2023-02-22T20:28:59.236Z,8.40
2023-02-22T20:31:27.183Z,8.40
2023-02-22T20:33:55.656Z,8.40
2023-02-22T20:36:22.655Z,8.40
2023-02-22T20:38:57.180Z,8.40
2023-02-22T20:41:26.814Z,8.40
2023-02-22T20:43:55.287Z,8.40
2023-02-22T20:46:23.924Z,8.30
2023-02-22T20:48:57.957Z,8.40
2023-02-22T20:51:26.224Z,8.30
2023-02-22T20:53:53.350Z,8.30
2023-02-22T20:56:22.707Z,8.30
2023-02-22T20:58:50.242Z,8.30
2023-02-22T21:01:19.567Z,8.20
2023-02-22T21:03:46.993Z,8.20
2023-02-22T21:06:18.505Z,8.20
2023-02-22T21:08:50.182Z,8.20
2023-02-22T21:11:20.262Z,8.10
2023-02-22T21:13:47.754Z,8.20
2023-02-22T21:16:29.980Z,8.10
2023-02-22T21:19:00.154Z,8.10
2023-02-22T21:21:28.082Z,8.10
2023-02-22T21:23:57.577Z,8.00
2023-02-22T21:26:29.675Z,8.00
2023-02-22T21:29:00.641Z,8.00
2023-02-22T21:31:28.669Z,8.00
2023-02-22T21:33:57.424Z,7.90
2023-02-22T21:36:25.498Z,7.90
2023-02-22T21:38:56.046Z,7.90
2023-02-22T21:41:27.641Z,7.80
2023-02-22T21:43:57.152Z,7.80
2023-02-22T21:46:26.023Z,7.80
2023-02-22T21:48:53.087Z,7.80
2023-02-22T21:51:25.867Z,7.70
2023-02-22T21:53:54.605Z,7.70
2023-02-22T21:56:24.560Z,7.70
2023-02-22T21:59:00.632Z,7.70
2023-02-22T22:01:32.834Z,7.70
2023-02-22T22:04:00.439Z,7.70
2023-02-22T22:06:28.952Z,7.70
2023-02-22T22:08:56.503Z,7.70
2023-02-22T22:11:25.179Z,7.70
2023-02-22T22:13:57.713Z,7.70
2023-02-22T22:16:27.185Z,7.70
2023-02-22T22:18:55.374Z,7.70
2023-02-22T22:21:24.037Z,7.60
2023-02-22T22:23:54.398Z,7.60
2023-02-22T22:26:24.736Z,7.60
2023-02-22T22:28:57.664Z,7.60
2023-02-22T22:31:26.354Z,7.50
2023-02-22T22:33:54.923Z,7.50
2023-02-22T22:36:23.116Z,7.50
2023-02-22T22:38:50.392Z,7.50
2023-02-22T22:41:19.664Z,7.40
2023-02-22T22:43:47.297Z,7.50
2023-02-22T22:46:16.657Z,7.40
2023-02-22T22:48:47.340Z,7.40
2023-02-22T22:51:20.924Z,7.40
2023-02-22T22:53:49.882Z,7.40
2023-02-22T22:56:19.844Z,7.40
2023-02-22T22:58:52.428Z,7.40
2023-02-22T23:01:26.920Z,7.40
2023-02-22T23:04:01.813Z,7.40
2023-02-22T23:06:32.935Z,7.40
2023-02-22T23:09:11.326Z,7.40
2023-02-22T23:11:44.577Z,7.50
2023-02-22T23:14:21.588Z,7.50
2023-02-22T23:16:50.081Z,7.50
2023-02-22T23:19:19.368Z,7.50
2023-02-22T23:21:47.621Z,7.50
2023-02-22T23:24:16.781Z,7.60
2023-02-22T23:26:50.920Z,7.60
2023-02-22T23:29:19.373Z,7.60
2023-02-22T23:31:48.363Z,7.60
2023-02-22T23:34:21.200Z,7.60
2023-02-22T23:36:49.701Z,7.60
2023-02-22T23:39:20.664Z,7.60
2023-02-22T23:41:55.832Z,7.60
2023-02-22T23:44:22.948Z,7.60
2023-02-22T23:46:55.076Z,7.60
2023-02-22T23:49:23.702Z,7.60
2023-02-22T23:51:51.112Z,7.60
2023-02-22T23:54:20.542Z,7.60
2023-02-22T23:56:56.519Z,7.60
2023-02-22T23:59:25.795Z,7.60
